createdAt,value
2023-06-05T00:01:36.862Z,5.57
2023-06-05T00:04:08.354Z,6.25
2023-06-05T00:06:39.628Z,9.85
2023-06-05T00:09:10.764Z,6.18
2023-06-05T00:11:44.471Z,9.40
2023-06-05T00:14:16.490Z,6.55
2023-06-05T00:16:47.402Z,6.32
2023-06-05T00:19:18.214Z,8.63
2023-06-05T00:21:51.961Z,8.57
2023-06-05T00:24:22.846Z,10.45
2023-06-05T00:26:57.828Z,8.48
2023-06-05T00:29:28.694Z,12.45
2023-06-05T00:31:59.668Z,5.60
2023-06-05T00:34:30.711Z,7.35
2023-06-05T00:37:01.816Z,7.93
2023-06-05T00:39:32.937Z,6.65
2023-06-05T00:42:06.658Z,6.55
2023-06-05T00:44:37.561Z,9.30
2023-06-05T00:47:09.328Z,8.60
2023-06-05T00:49:40.412Z,8.65
2023-06-05T00:52:14.921Z,11.30
2023-06-05T00:54:46.428Z,9.70
2023-06-05T00:57:19.924Z,8.15
2023-06-05T00:59:51.135Z,10.65
2023-06-05T01:02:22.578Z,8.43
2023-06-05T01:04:53.532Z,7.53
2023-06-05T01:07:24.844Z,10.85
2023-06-05T01:09:55.843Z,8.23
2023-06-05T01:12:35.963Z,12.95
2023-06-05T01:15:10.308Z,14.13
2023-06-05T01:17:42.154Z,6.50
2023-06-05T01:20:14.356Z,7.50
2023-06-05T01:22:45.367Z,7.45
2023-06-05T01:25:20.131Z,11.82
2023-06-05T01:27:57.784Z,7.53
2023-06-05T01:30:34.288Z,10.40
2023-06-05T01:33:09.821Z,9.38
2023-06-05T01:35:41.479Z,12.07
2023-06-05T01:38:15.173Z,8.52
2023-06-05T01:40:51.359Z,10.00
2023-06-05T01:43:24.158Z,7.28
2023-06-05T01:45:57.930Z,9.93
2023-06-05T01:48:31.566Z,7.95
2023-06-05T01:51:03.185Z,8.80
2023-06-05T01:53:34.443Z,11.60
2023-06-05T01:56:10.337Z,11.38
2023-06-05T01:58:41.269Z,11.57
2023-06-05T02:01:12.231Z,7.35
2023-06-05T02:03:49.346Z,7.20
2023-06-05T02:06:22.300Z,8.13
2023-06-05T02:08:54.457Z,7.78
2023-06-05T02:11:27.930Z,6.68
2023-06-05T02:14:01.354Z,7.97
2023-06-05T02:16:32.564Z,7.20
2023-06-05T02:19:04.888Z,11.70
2023-06-05T02:21:36.742Z,13.68
2023-06-05T02:24:08.393Z,10.88
2023-06-05T02:26:41.949Z,6.68
2023-06-05T02:29:13.874Z,9.02
2023-06-05T02:31:45.268Z,7.25
2023-06-05T02:34:18.029Z,8.00
2023-06-05T02:36:49.438Z,7.55
2023-06-05T02:39:20.919Z,9.25
2023-06-05T02:41:54.468Z,7.68
2023-06-05T02:44:25.420Z,10.18
2023-06-05T02:46:56.486Z,7.13
2023-06-05T02:49:27.740Z,7.25
2023-06-05T02:52:01.701Z,7.80
2023-06-05T02:54:32.693Z,10.20
2023-06-05T02:57:10.055Z,6.20
2023-06-05T02:59:42.744Z,10.98
2023-06-05T03:02:17.677Z,10.23
2023-06-05T03:04:54.609Z,10.60
2023-06-05T03:07:28.872Z,7.82
2023-06-05T03:10:00.303Z,8.35
2023-06-05T03:12:33.833Z,8.55
2023-06-05T03:15:05.842Z,9.45
2023-06-05T03:17:37.775Z,5.90
2023-06-05T03:20:11.034Z,7.35
2023-06-05T03:22:43.649Z,9.73
2023-06-05T03:25:15.326Z,9.60
2023-06-05T03:27:51.366Z,7.60
2023-06-05T03:30:22.794Z,9.65
2023-06-05T03:32:57.913Z,8.88
2023-06-05T03:35:29.638Z,8.80
2023-06-05T03:38:05.919Z,8.35
2023-06-05T03:40:40.530Z,11.05
2023-06-05T03:43:16.988Z,8.27
2023-06-05T03:45:48.109Z,9.57
2023-06-05T03:48:20.683Z,7.88
2023-06-05T03:50:53.107Z,6.25
2023-06-05T03:53:24.950Z,11.32
2023-06-05T03:55:56.155Z,10.75
2023-06-05T03:58:33.431Z,9.77
2023-06-05T04:01:04.836Z,6.35
2023-06-05T04:03:38.890Z,5.35
2023-06-05T04:06:10.349Z,6.20
2023-06-05T04:08:41.331Z,8.85
2023-06-05T04:11:12.334Z,7.57
2023-06-05T04:13:47.637Z,9.38
2023-06-05T04:16:18.724Z,10.32
2023-06-05T04:18:50.704Z,6.50
2023-06-05T04:21:21.817Z,9.55
2023-06-05T04:23:52.762Z,6.13
2023-06-05T04:26:25.728Z,5.57
2023-06-05T04:28:59.658Z,10.23
2023-06-05T04:31:31.145Z,8.73
2023-06-05T04:34:03.383Z,9.88
2023-06-05T04:36:35.667Z,7.70
2023-06-05T04:39:08.556Z,6.70
2023-06-05T04:41:46.379Z,10.90
2023-06-05T04:44:24.205Z,5.65
2023-06-05T04:46:55.224Z,9.90
2023-06-05T04:49:27.501Z,10.40
2023-06-05T04:52:00.774Z,10.77
2023-06-05T04:54:32.195Z,8.00
2023-06-05T04:57:04.438Z,9.65
2023-06-05T04:59:38.324Z,9.90
2023-06-05T05:02:09.507Z,9.55
2023-06-05T05:04:41.555Z,8.00
2023-06-05T05:07:16.587Z,7.53
2023-06-05T05:09:49.268Z,9.43
2023-06-05T05:12:20.363Z,10.27
2023-06-05T05:14:54.474Z,5.88
2023-06-05T05:17:25.589Z,9.10
2023-06-05T05:19:56.527Z,11.23
2023-06-05T05:22:28.610Z,5.75
2023-06-05T05:25:01.023Z,7.22
2023-06-05T05:27:32.134Z,7.55
2023-06-05T05:30:06.170Z,10.00
2023-06-05T05:32:37.412Z,11.35
2023-06-05T05:35:09.611Z,8.38
2023-06-05T05:37:40.747Z,7.93
2023-06-05T05:40:12.921Z,9.18
2023-06-05T05:42:43.978Z,8.73
2023-06-05T05:45:18.417Z,8.32
2023-06-05T05:47:49.483Z,8.52
2023-06-05T05:50:20.472Z,5.93
2023-06-05T05:52:53.411Z,4.93
2023-06-05T05:55:24.453Z,7.88
2023-06-05T05:57:55.410Z,5.75
2023-06-05T06:00:29.623Z,8.43
2023-06-05T06:03:00.507Z,8.82
2023-06-05T06:05:30.981Z,10.65
2023-06-05T06:08:01.424Z,6.85
2023-06-05T06:10:32.175Z,7.35
2023-06-05T06:13:02.886Z,10.00
2023-06-05T06:15:38.492Z,6.63
2023-06-05T06:18:09.235Z,6.85
2023-06-05T06:20:40.144Z,9.48
2023-06-05T06:23:10.533Z,7.43
2023-06-05T06:25:41.424Z,9.10
2023-06-05T06:28:11.934Z,8.20
2023-06-05T06:30:45.008Z,10.70
2023-06-05T06:33:15.484Z,5.75
2023-06-05T06:35:45.900Z,7.40
2023-06-05T06:38:16.243Z,5.20
2023-06-05T06:40:46.900Z,7.20
2023-06-05T06:43:17.416Z,10.32
2023-06-05T06:45:56.846Z,8.23
2023-06-05T06:48:27.458Z,6.80
2023-06-05T06:50:57.993Z,7.78
2023-06-05T06:53:28.395Z,7.95
2023-06-05T06:55:58.843Z,6.65
2023-06-05T06:58:29.402Z,7.10
2023-06-05T07:01:02.578Z,11.85
2023-06-05T07:03:33.145Z,10.50
2023-06-05T07:06:03.537Z,10.60
2023-06-05T07:08:33.986Z,7.00
2023-06-05T07:11:04.624Z,9.57
2023-06-05T07:13:35.177Z,6.22
2023-06-05T07:16:09.678Z,5.50
2023-06-05T07:18:41.921Z,6.90
2023-06-05T07:21:13.817Z,8.55
2023-06-05T07:23:45.984Z,7.20
2023-06-05T07:26:17.312Z,8.88
2023-06-05T07:28:48.076Z,7.15
2023-06-05T07:31:22.702Z,9.88
2023-06-05T07:33:53.294Z,8.73
2023-06-05T07:36:23.771Z,10.77
2023-06-05T07:38:54.237Z,5.80
2023-06-05T07:41:24.832Z,7.75
2023-06-05T07:43:55.244Z,7.82
2023-06-05T07:46:29.108Z,9.57
2023-06-05T07:48:59.516Z,7.15
2023-06-05T07:51:30.370Z,6.85
2023-06-05T07:54:02.053Z,10.88
2023-06-05T07:56:32.902Z,8.90
2023-06-05T07:59:03.985Z,10.00
2023-06-05T08:01:38.962Z,7.10
2023-06-05T08:04:12.226Z,8.50
2023-06-05T08:06:43.084Z,6.25
2023-06-05T08:09:13.568Z,7.78
2023-06-05T08:11:44.507Z,9.95
2023-06-05T08:14:14.939Z,6.13
2023-06-05T08:16:48.198Z,7.35
2023-06-05T08:19:18.680Z,8.65
2023-06-05T08:21:49.392Z,9.38
2023-06-05T08:24:20.041Z,9.70
2023-06-05T08:26:50.748Z,10.15
2023-06-05T08:29:22.073Z,7.60
2023-06-05T08:31:55.082Z,8.45
2023-06-05T08:34:27.202Z,9.13
2023-06-05T08:36:59.511Z,10.20
2023-06-05T08:39:33.157Z,7.10
2023-06-05T08:42:07.214Z,7.57
2023-06-05T08:44:40.423Z,7.60
2023-06-05T08:47:16.851Z,8.75
2023-06-05T08:49:47.737Z,9.10
2023-06-05T08:52:18.919Z,8.13
2023-06-05T08:54:49.309Z,7.03
2023-06-05T08:57:20.041Z,6.97
2023-06-05T08:59:50.819Z,8.90
2023-06-05T09:02:23.871Z,5.35
2023-06-05T09:04:54.231Z,10.02
2023-06-05T09:07:24.635Z,8.93
2023-06-05T09:09:55.030Z,8.35
2023-06-05T09:12:25.878Z,5.53
2023-06-05T09:14:58.516Z,7.65
2023-06-05T09:17:31.728Z,8.23
2023-06-05T09:20:02.261Z,8.10
2023-06-05T09:22:39.585Z,6.85
2023-06-05T09:25:10.809Z,11.10
2023-06-05T09:27:41.419Z,7.00
2023-06-05T09:30:12.837Z,6.35
2023-06-05T09:32:46.231Z,7.35
2023-06-05T09:35:20.816Z,4.28
2023-06-05T09:37:51.104Z,8.20
2023-06-05T09:40:21.649Z,7.03
2023-06-05T09:42:53.761Z,4.88
2023-06-05T09:45:24.197Z,5.75
2023-06-05T09:47:57.487Z,3.88
2023-06-05T09:50:29.067Z,4.85
2023-06-05T09:53:01.123Z,7.90
2023-06-05T09:55:32.100Z,5.53
2023-06-05T09:58:11.419Z,10.93
2023-06-05T10:00:43.627Z,4.93
2023-06-05T10:03:21.402Z,6.00
2023-06-05T10:05:59.201Z,5.75
2023-06-05T10:08:31.483Z,4.18
2023-06-05T10:11:02.166Z,5.95
2023-06-05T10:13:33.091Z,3.50
2023-06-05T10:16:04.894Z,5.05
2023-06-05T10:18:42.573Z,6.43
2023-06-05T10:21:13.997Z,3.70
2023-06-05T10:23:46.282Z,6.55
2023-06-05T10:26:37.117Z,7.60
2023-06-05T10:29:22.611Z,6.43
2023-06-05T10:31:57.592Z,3.60
2023-06-05T10:34:43.875Z,5.75
2023-06-05T10:37:40.394Z,4.63
2023-06-05T10:40:12.847Z,3.88
2023-06-05T10:42:43.320Z,7.93
2023-06-05T10:45:14.292Z,5.28
2023-06-05T10:47:57.469Z,6.68
2023-06-05T10:50:32.897Z,6.30
2023-06-05T10:53:03.431Z,6.50
2023-06-05T10:55:46.540Z,6.22
2023-06-05T10:58:23.579Z,4.55
2023-06-05T11:01:23.652Z,5.57
2023-06-05T11:04:01.717Z,6.13
2023-06-05T11:06:34.813Z,5.93
2023-06-05T11:09:16.544Z,6.90
2023-06-05T11:12:03.372Z,5.75
2023-06-05T11:14:49.557Z,8.50
2023-06-05T11:17:33.964Z,5.70
2023-06-05T11:20:08.326Z,5.07
2023-06-05T11:23:13.765Z,8.13
2023-06-05T11:25:44.206Z,5.35
2023-06-05T11:28:15.309Z,4.82
2023-06-05T11:30:50.148Z,6.60
2023-06-05T11:33:23.137Z,5.07
2023-06-05T11:35:54.324Z,4.50
2023-06-05T11:38:27.657Z,5.57
2023-06-05T11:40:58.852Z,5.95
2023-06-05T11:43:29.599Z,5.03
2023-06-05T11:46:01.624Z,6.00
2023-06-05T11:48:34.348Z,6.20
2023-06-05T11:51:07.094Z,5.95
2023-06-05T11:53:47.014Z,5.60
2023-06-05T11:56:19.973Z,5.03
2023-06-05T11:58:52.519Z,4.57
2023-06-05T12:01:32.769Z,5.75
2023-06-05T12:04:08.153Z,5.00
2023-06-05T12:06:47.980Z,5.82
2023-06-05T12:09:22.805Z,6.95
2023-06-05T12:11:53.639Z,4.38
2023-06-05T12:14:34.730Z,3.63
2023-06-05T12:17:12.385Z,5.07
2023-06-05T12:19:43.534Z,5.38
2023-06-05T12:22:15.226Z,4.05
2023-06-05T12:24:48.297Z,6.28
2023-06-05T12:27:18.857Z,5.85
2023-06-05T12:29:58.601Z,3.97
2023-06-05T12:32:29.806Z,4.95
2023-06-05T12:35:04.393Z,5.45
2023-06-05T12:37:39.184Z,5.05
2023-06-05T12:40:22.586Z,4.85
2023-06-05T12:43:03.586Z,4.75
2023-06-05T12:45:34.715Z,5.90
2023-06-05T12:48:05.425Z,6.00
2023-06-05T12:50:35.844Z,5.78
2023-06-05T12:53:07.925Z,6.90
2023-06-05T12:55:42.473Z,5.53
2023-06-05T12:58:13.085Z,3.53
2023-06-05T13:00:45.492Z,3.78
2023-06-05T13:03:18.050Z,6.03
2023-06-05T13:05:48.507Z,5.25
2023-06-05T13:08:19.146Z,7.82
2023-06-05T13:10:52.330Z,3.78
2023-06-05T13:13:22.750Z,5.25
2023-06-05T13:15:53.122Z,4.65
2023-06-05T13:18:23.581Z,5.43
2023-06-05T13:20:54.047Z,5.55
2023-06-05T13:23:24.799Z,5.38
2023-06-05T13:25:58.260Z,4.90
2023-06-05T13:28:28.709Z,8.55
2023-06-05T13:30:59.263Z,4.82
2023-06-05T13:33:29.763Z,5.03
2023-06-05T13:36:02.056Z,4.90
2023-06-05T13:38:32.574Z,6.65
2023-06-05T13:41:05.542Z,4.88
2023-06-05T13:43:36.046Z,5.10
2023-06-05T13:46:06.444Z,3.85
2023-06-05T13:48:38.553Z,5.57
2023-06-05T13:51:09.031Z,5.57
2023-06-05T13:53:39.483Z,4.68
2023-06-05T13:56:12.632Z,4.70
2023-06-05T13:58:44.001Z,5.32
2023-06-05T14:01:14.528Z,4.38
2023-06-05T14:03:45.080Z,5.72
2023-06-05T14:06:15.578Z,4.25
2023-06-05T14:08:46.029Z,4.95
2023-06-05T14:11:19.055Z,5.35
2023-06-05T14:13:49.530Z,5.60
2023-06-05T14:16:21.629Z,4.60
2023-06-05T14:18:52.075Z,5.85
2023-06-05T14:21:24.986Z,6.40
2023-06-05T14:23:56.388Z,4.75
2023-06-05T14:26:31.759Z,5.18
2023-06-05T14:29:02.248Z,4.90
2023-06-05T14:31:32.655Z,4.35
2023-06-05T14:34:03.126Z,5.30
2023-06-05T14:36:33.683Z,6.32
2023-06-05T14:39:05.166Z,4.35
2023-06-05T14:41:38.221Z,6.80
2023-06-05T14:44:21.645Z,7.43
2023-06-05T14:46:54.277Z,4.53
2023-06-05T14:49:25.811Z,6.53
2023-06-05T14:51:56.564Z,3.97
2023-06-05T14:54:26.983Z,5.07
2023-06-05T14:56:59.982Z,4.28
2023-06-05T14:59:30.854Z,4.65
2023-06-05T15:02:01.313Z,5.38
2023-06-05T15:04:32.365Z,5.13
2023-06-05T15:07:02.933Z,5.65
2023-06-05T15:09:33.463Z,4.10
2023-06-05T15:12:08.403Z,5.30
2023-06-05T15:14:40.692Z,6.30
2023-06-05T15:17:13.785Z,4.05
2023-06-05T15:19:44.416Z,4.75
2023-06-05T15:22:14.960Z,5.10
2023-06-05T15:24:47.267Z,5.05
2023-06-05T15:27:20.291Z,5.07
2023-06-05T15:29:50.690Z,7.97
2023-06-05T15:32:21.298Z,4.07
2023-06-05T15:35:00.864Z,5.15
2023-06-05T15:37:32.764Z,8.10
2023-06-05T15:40:03.651Z,6.35
2023-06-05T15:42:37.782Z,5.15
2023-06-05T15:45:12.345Z,4.63
2023-06-05T15:47:43.692Z,5.20
2023-06-05T15:50:14.859Z,4.97
2023-06-05T15:52:45.291Z,5.03
2023-06-05T15:55:15.807Z,4.10
2023-06-05T15:57:50.394Z,5.32
2023-06-05T16:00:26.838Z,6.60
2023-06-05T16:02:57.985Z,4.72
2023-06-05T16:05:28.714Z,3.85
2023-06-05T16:07:59.119Z,4.47
2023-06-05T16:10:29.597Z,6.15
2023-06-05T16:13:03.631Z,8.32
2023-06-05T16:15:34.055Z,7.13
2023-06-05T16:18:04.723Z,7.97
2023-06-05T16:20:35.540Z,7.63
2023-06-05T16:23:20.549Z,5.10
2023-06-05T16:25:57.571Z,5.18
2023-06-05T16:28:36.783Z,4.97
2023-06-05T16:31:09.709Z,4.57
2023-06-05T16:33:46.437Z,4.20
2023-06-05T16:36:19.503Z,5.20
2023-06-05T16:38:49.942Z,5.95
2023-06-05T16:41:20.430Z,5.72
2023-06-05T16:43:53.362Z,6.80
2023-06-05T16:46:25.035Z,6.32
2023-06-05T16:48:55.505Z,5.93
2023-06-05T16:51:26.105Z,4.47
2023-06-05T16:53:56.565Z,9.10
2023-06-05T16:56:27.025Z,7.93
2023-06-05T16:59:00.347Z,9.02
2023-06-05T17:01:30.864Z,9.10
2023-06-05T17:04:01.977Z,6.68
2023-06-05T17:06:33.189Z,6.20
2023-06-05T17:09:04.707Z,7.68
2023-06-05T17:11:35.840Z,5.95
2023-06-05T17:14:11.106Z,7.28
2023-06-05T17:16:43.222Z,7.72
2023-06-05T17:19:14.548Z,6.75
2023-06-05T17:21:45.167Z,8.30
2023-06-05T17:24:15.594Z,5.80
2023-06-05T17:26:46.155Z,6.63
2023-06-05T17:29:19.996Z,6.07
2023-06-05T17:31:52.969Z,7.45
2023-06-05T17:34:23.591Z,5.95
2023-06-05T17:36:54.272Z,6.72
2023-06-05T17:39:25.362Z,8.13
2023-06-05T17:41:56.152Z,9.88
2023-06-05T17:44:29.162Z,6.15
2023-06-05T17:46:59.653Z,8.77
2023-06-05T17:49:30.324Z,7.22
2023-06-05T17:52:00.998Z,7.45
2023-06-05T17:54:31.877Z,10.75
2023-06-05T17:57:02.584Z,8.75
2023-06-05T17:59:36.166Z,8.02
2023-06-05T18:02:07.756Z,8.20
2023-06-05T18:04:39.020Z,6.60
2023-06-05T18:07:10.834Z,8.63
2023-06-05T18:09:41.801Z,12.50
2023-06-05T18:12:13.535Z,11.27
2023-06-05T18:14:47.128Z,8.05
2023-06-05T18:17:18.271Z,12.40
2023-06-05T18:19:49.206Z,9.88
2023-06-05T18:22:20.127Z,10.60
2023-06-05T18:24:51.684Z,9.90
2023-06-05T18:27:22.972Z,8.82
2023-06-05T18:29:56.652Z,9.35
2023-06-05T18:32:27.671Z,8.32
2023-06-05T18:34:58.983Z,10.35
2023-06-05T18:37:30.179Z,9.13
2023-06-05T18:40:01.275Z,11.85
2023-06-05T18:42:32.504Z,9.27
2023-06-05T18:45:07.494Z,11.93
2023-06-05T18:47:39.023Z,9.07
2023-06-05T18:50:10.924Z,9.82
2023-06-05T18:52:42.059Z,6.75
2023-06-05T18:55:13.550Z,10.48
2023-06-05T18:57:45.374Z,10.60
2023-06-05T19:00:20.104Z,9.73
2023-06-05T19:02:51.174Z,11.02
2023-06-05T19:05:22.377Z,10.23
2023-06-05T19:07:53.376Z,9.38
2023-06-05T19:10:24.454Z,12.95
2023-06-05T19:12:55.938Z,11.70
2023-06-05T19:15:29.664Z,8.90
2023-06-05T19:18:00.786Z,7.68
2023-06-05T19:20:31.727Z,9.52
2023-06-05T19:23:02.691Z,10.45
2023-06-05T19:25:34.201Z,10.10
2023-06-05T19:28:05.160Z,8.82
2023-06-05T19:30:39.110Z,11.50
2023-06-05T19:33:10.451Z,8.45
2023-06-05T19:35:41.825Z,9.40
2023-06-05T19:38:12.912Z,9.50
2023-06-05T19:40:44.014Z,11.52
2023-06-05T19:43:15.239Z,11.48
2023-06-05T19:45:49.022Z,10.85
2023-06-05T19:48:20.128Z,9.63
2023-06-05T19:50:51.239Z,14.38
2023-06-05T19:53:22.294Z,13.43
2023-06-05T19:55:53.146Z,11.32
2023-06-05T19:58:26.965Z,7.28
2023-06-05T20:01:00.720Z,9.40
2023-06-05T20:03:31.715Z,10.07
2023-06-05T20:06:02.756Z,8.93
2023-06-05T20:08:34.035Z,11.55
2023-06-05T20:11:05.426Z,10.80
2023-06-05T20:13:36.509Z,8.40
2023-06-05T20:16:11.509Z,12.45
2023-06-05T20:18:43.162Z,10.20
2023-06-05T20:21:14.283Z,11.20
2023-06-05T20:23:45.349Z,11.10
2023-06-05T20:26:18.060Z,10.93
2023-06-05T20:28:49.059Z,12.70
2023-06-05T20:31:23.043Z,8.25
2023-06-05T20:33:56.713Z,8.77
2023-06-05T20:36:31.485Z,10.73
2023-06-05T20:39:02.461Z,11.48
2023-06-05T20:41:33.560Z,10.27
2023-06-05T20:44:04.685Z,9.25
2023-06-05T20:46:38.678Z,12.85
2023-06-05T20:49:09.609Z,10.82
2023-06-05T20:51:47.584Z,11.65
2023-06-05T20:54:18.753Z,10.02
2023-06-05T20:56:49.717Z,12.65
2023-06-05T20:59:20.864Z,12.25
2023-06-05T21:01:54.398Z,11.35
2023-06-05T21:04:25.389Z,14.93
2023-06-05T21:06:56.274Z,10.98
2023-06-05T21:09:27.108Z,11.52
2023-06-05T21:11:58.040Z,9.75
2023-06-05T21:14:29.002Z,11.68
2023-06-05T21:17:02.520Z,12.55
2023-06-05T21:19:33.453Z,11.20
2023-06-05T21:22:05.573Z,11.43
2023-06-05T21:24:37.154Z,12.30
2023-06-05T21:27:09.580Z,12.68
2023-06-05T21:29:40.471Z,14.85
2023-06-05T21:32:14.140Z,10.98
2023-06-05T21:34:46.686Z,12.55
2023-06-05T21:37:19.496Z,9.00
2023-06-05T21:39:50.991Z,12.15
2023-06-05T21:42:21.946Z,12.55
2023-06-05T21:44:53.125Z,15.75
2023-06-05T21:47:26.647Z,10.32
2023-06-05T21:49:57.614Z,10.93
2023-06-05T21:52:29.764Z,12.32
2023-06-05T21:55:00.775Z,10.75
2023-06-05T21:57:31.617Z,10.38
2023-06-05T22:00:02.588Z,12.25
2023-06-05T22:02:46.400Z,12.80
2023-06-05T22:05:18.449Z,10.07
2023-06-05T22:07:51.726Z,12.77
2023-06-05T22:10:22.656Z,13.30
2023-06-05T22:12:54.132Z,13.52
2023-06-05T22:15:26.398Z,9.60
2023-06-05T22:17:59.978Z,11.43
2023-06-05T22:20:31.128Z,11.63
2023-06-05T22:23:02.824Z,15.95
2023-06-05T22:25:50.357Z,11.93
2023-06-05T22:28:23.002Z,10.00
2023-06-05T22:30:54.620Z,14.00
2023-06-05T22:33:28.672Z,9.55
2023-06-05T22:35:59.580Z,10.30
2023-06-05T22:38:32.200Z,14.95
2023-06-05T22:41:03.088Z,9.55
2023-06-05T22:43:34.546Z,8.73
2023-06-05T22:46:06.328Z,10.93
2023-06-05T22:48:39.836Z,14.00
2023-06-05T22:51:14.106Z,9.02
2023-06-05T22:53:45.246Z,12.27
2023-06-05T22:56:16.433Z,11.85
2023-06-05T22:58:47.358Z,10.88
2023-06-05T23:01:18.913Z,10.27
2023-06-05T23:03:52.579Z,15.48
2023-06-05T23:06:23.503Z,12.52
2023-06-05T23:08:54.475Z,10.82
2023-06-05T23:11:25.434Z,14.65
2023-06-05T23:13:56.393Z,11.27
2023-06-05T23:16:27.608Z,14.75
2023-06-05T23:19:02.515Z,11.43
2023-06-05T23:21:34.350Z,10.32
2023-06-05T23:24:05.208Z,11.18
2023-06-05T23:26:36.725Z,10.02
2023-06-05T23:29:07.608Z,13.23
2023-06-05T23:31:40.578Z,12.98
2023-06-05T23:34:14.202Z,11.07
2023-06-05T23:36:49.621Z,11.98
2023-06-05T23:39:20.697Z,13.60
2023-06-05T23:41:51.972Z,12.57
2023-06-05T23:44:22.949Z,9.93
2023-06-05T23:46:54.025Z,13.68
2023-06-05T23:49:27.883Z,15.38
2023-06-05T23:51:59.106Z,13.75
2023-06-05T23:54:30.131Z,11.98
2023-06-05T23:57:01.118Z,13.50
2023-06-05T23:59:32.008Z,12.85
